Time;durP1;ratioP1;P1;durP2;ratioP2;P2;SDS_P1;SDS_P2;PMS_P1;PMS_P2;Temp;Humidity;BMP_temperature;BMP_pressure;BME280_temperature;BME280_humidity;BME280_pressure;Samples;Min_cycle;Max_cycle;Signal;HPM_P1;HPM_P2
2022/01/06 00:01:41;;;;;;;4.60;0.97;;;4.80;99.90;;;;;;5035166;28;20487;-44
2022/01/06 00:04:07;;;;;;;2.33;1.20;;;4.90;99.90;;;;;;5035531;28;20464;-50
2022/01/06 00:06:38;;;;;;;2.50;1.03;;;4.90;99.90;;;;;;5035529;28;20746;-52
2022/01/06 00:09:08;;;;;;;1.73;1.00;;;4.90;99.90;;;;;;5035345;28;20472;-55
2022/01/06 00:11:35;;;;;;;1.00;0.63;;;5.00;99.90;;;;;;5035443;28;20440;-49
2022/01/06 00:14:07;;;;;;;2.77;1.77;;;5.10;99.90;;;;;;5035307;28;20476;-53
2022/01/06 00:16:40;;;;;;;1.57;0.60;;;5.00;99.90;;;;;;5035100;28;20524;-53
2022/01/06 00:24:37;;;;;;;3.83;0.83;;;5.10;99.90;;;;;;5035036;28;20472;-51
2022/01/06 00:27:04;;;;;;;3.00;1.33;;;5.00;99.90;;;;;;5034759;28;20937;-48
2022/01/06 00:29:31;;;;;;;4.50;1.27;;;5.00;99.90;;;;;;5035148;28;20452;-48
2022/01/06 00:31:58;;;;;;;1.30;0.97;;;5.00;99.90;;;;;;5034835;28;20905;-53
2022/01/06 00:34:24;;;;;;;4.47;0.90;;;5.10;99.90;;;;;;5035280;28;20476;-55
2022/01/06 00:36:51;;;;;;;2.30;1.23;;;5.10;99.90;;;;;;5035125;28;20534;-53
2022/01/06 00:39:18;;;;;;;4.43;1.47;;;5.10;99.90;;;;;;5034605;28;20949;-53
2022/01/06 00:41:46;;;;;;;2.47;0.93;;;5.10;99.90;;;;;;5033980;28;20471;-55
2022/01/06 00:44:14;;;;;;;0.80;0.53;;;5.00;99.90;;;;;;5034767;28;20456;-47
2022/01/06 00:46:41;;;;;;;4.83;1.10;;;5.00;99.90;;;;;;5034470;28;20452;-50
2022/01/06 00:49:07;;;;;;;2.77;0.93;;;5.00;99.90;;;;;;5034723;28;20484;-49
2022/01/06 00:51:34;;;;;;;2.47;1.20;;;5.00;99.90;;;;;;5034580;28;20461;-51
2022/01/06 00:54:01;;;;;;;2.40;0.70;;;5.00;99.90;;;;;;5034706;28;20510;-51
2022/01/06 00:56:27;;;;;;;1.90;1.03;;;4.90;99.90;;;;;;5034598;28;20483;-51
2022/01/06 00:58:55;;;;;;;1.23;0.60;;;4.90;99.90;;;;;;5034359;28;20960;-53
2022/01/06 01:01:22;;;;;;;1.27;0.60;;;4.80;99.90;;;;;;5034742;28;20510;-51
2022/01/06 01:03:49;;;;;;;5.33;1.23;;;4.70;99.90;;;;;;5034531;28;20476;-53
2022/01/06 01:06:16;;;;;;;1.93;0.83;;;4.60;99.90;;;;;;5034441;28;20496;-50
2022/01/06 01:08:42;;;;;;;5.07;1.20;;;4.50;99.90;;;;;;5034459;28;20502;-48
2022/01/06 01:11:09;;;;;;;1.43;1.07;;;4.50;99.90;;;;;;5034207;28;20444;-47
2022/01/06 01:13:53;;;;;;;4.90;1.70;;;4.50;99.90;;;;;;5034199;28;20984;-47
2022/01/06 01:16:26;;;;;;;3.37;1.17;;;4.40;99.90;;;;;;5034334;28;20512;-51
2022/01/06 01:18:55;;;;;;;1.30;1.20;;;4.30;99.90;;;;;;5034268;28;20428;-53
2022/01/06 01:21:26;;;;;;;1.70;1.13;;;4.30;99.90;;;;;;5034569;28;20472;-48
2022/01/06 01:23:53;;;;;;;1.10;0.83;;;4.30;99.90;;;;;;5034579;28;20475;-48
2022/01/06 01:26:19;;;;;;;1.30;0.90;;;4.10;99.90;;;;;;5034109;28;20530;-51
2022/01/06 01:28:46;;;;;;;2.40;1.10;;;4.00;99.90;;;;;;5034089;28;20909;-50
2022/01/06 01:31:26;;;;;;;1.00;0.87;;;4.00;99.90;;;;;;5033983;28;20938;-52
2022/01/06 01:33:59;;;;;;;1.17;0.67;;;3.90;99.90;;;;;;5034250;28;20790;-44
2022/01/06 01:36:26;;;;;;;1.10;0.80;;;3.80;99.90;;;;;;5034396;28;20495;-48
2022/01/06 01:38:53;;;;;;;4.00;1.07;;;3.70;99.90;;;;;;5033978;28;20448;-51
2022/01/06 01:41:20;;;;;;;1.77;0.80;;;3.70;99.90;;;;;;5034032;28;20968;-50
2022/01/06 01:43:47;;;;;;;1.43;0.73;;;3.60;99.90;;;;;;5034278;28;20452;-51
2022/01/06 01:46:17;;;;;;;1.10;0.80;;;3.50;99.90;;;;;;5033943;28;20479;-53
2022/01/06 01:48:49;;;;;;;1.07;0.90;;;3.40;99.90;;;;;;5034170;28;20556;-50
2022/01/06 01:51:18;;;;;;;1.20;0.80;;;3.30;99.90;;;;;;5033820;28;20487;-54
2022/01/06 01:53:45;;;;;;;1.60;1.10;;;3.30;99.90;;;;;;5037011;28;20428;-50
2022/01/06 01:56:13;;;;;;;1.00;0.80;;;3.30;99.90;;;;;;5038235;28;20444;-49
2022/01/06 01:58:41;;;;;;;1.43;0.83;;;3.30;99.90;;;;;;5038095;28;20472;-51
2022/01/06 02:01:07;;;;;;;1.20;0.90;;;3.40;99.90;;;;;;5037955;28;20471;-50
2022/01/06 02:03:34;;;;;;;0.90;0.70;;;3.30;99.90;;;;;;5037934;28;20562;-50
2022/01/06 02:06:01;;;;;;;1.20;0.80;;;3.30;99.90;;;;;;5037778;28;20594;-47
2022/01/06 02:08:30;;;;;;;1.67;0.80;;;3.30;99.90;;;;;;5038083;28;20452;-53
2022/01/06 02:10:57;;;;;;;0.80;0.60;;;3.30;99.90;;;;;;5037597;28;20667;-51
2022/01/06 02:13:28;;;;;;;6.03;1.30;;;3.30;99.90;;;;;;5037674;28;20463;-49
2022/01/06 02:15:56;;;;;;;2.33;0.90;;;3.30;99.90;;;;;;5037651;28;20480;-47
2022/01/06 02:18:22;;;;;;;1.00;0.80;;;3.30;99.90;;;;;;5037561;28;20447;-55
2022/01/06 02:20:50;;;;;;;1.20;0.80;;;3.20;99.90;;;;;;5037525;28;20510;-52
2022/01/06 02:23:21;;;;;;;0.90;0.73;;;3.30;99.90;;;;;;5037341;28;20480;-45
2022/01/06 02:25:48;;;;;;;1.00;0.90;;;3.30;99.90;;;;;;5037397;28;20468;-54
2022/01/06 02:28:16;;;;;;;3.10;1.40;;;3.30;99.90;;;;;;5037413;28;20472;-53
2022/01/06 02:30:46;;;;;;;0.90;0.60;;;3.30;99.90;;;;;;5037033;28;20957;-53
2022/01/06 02:33:13;;;;;;;1.37;0.90;;;3.40;99.90;;;;;;5037310;28;20458;-53
2022/01/06 02:35:40;;;;;;;3.57;1.30;;;3.50;99.90;;;;;;5037242;28;20456;-46
2022/01/06 02:38:09;;;;;;;0.90;0.60;;;3.50;99.90;;;;;;5037613;28;20607;-51
2022/01/06 02:40:36;;;;;;;1.10;0.73;;;3.50;99.90;;;;;;5037317;28;20468;-54
2022/01/06 02:43:06;;;;;;;1.10;0.70;;;3.50;99.90;;;;;;5037419;28;20456;-49
2022/01/06 02:45:32;;;;;;;3.00;1.57;;;3.50;99.90;;;;;;5036906;28;20480;-48
2022/01/06 02:48:00;;;;;;;4.13;0.80;;;3.60;99.90;;;;;;5036688;28;20995;-52
2022/01/06 02:50:27;;;;;;;3.27;0.70;;;3.60;99.90;;;;;;5037014;28;20836;-49
2022/01/06 02:52:54;;;;;;;1.73;0.80;;;3.60;99.90;;;;;;5036869;28;20484;-53
2022/01/06 02:55:22;;;;;;;1.53;0.90;;;3.60;99.90;;;;;;5036559;28;20506;-47
2022/01/06 02:57:49;;;;;;;1.63;0.93;;;3.70;99.90;;;;;;5036902;28;20526;-48
2022/01/06 03:00:17;;;;;;;3.90;1.07;;;3.70;99.90;;;;;;5036801;28;20830;-53
2022/01/06 03:02:46;;;;;;;1.40;1.07;;;3.80;99.90;;;;;;5036769;28;20475;-49
2022/01/06 03:05:14;;;;;;;6.40;0.90;;;3.80;99.90;;;;;;5035393;28;20557;-50
2022/01/06 03:07:41;;;;;;;1.23;0.90;;;3.70;99.90;;;;;;5036781;28;20472;-60
2022/01/06 03:10:12;;;;;;;1.00;0.70;;;3.60;99.90;;;;;;5036619;28;20498;-47
2022/01/06 03:12:40;;;;;;;2.30;0.90;;;3.60;99.90;;;;;;5036436;28;20442;-52
2022/01/06 03:15:08;;;;;;;1.23;0.97;;;3.60;99.90;;;;;;5036587;28;20511;-50
2022/01/06 03:17:36;;;;;;;1.10;0.70;;;3.60;99.90;;;;;;5036455;28;20468;-54
2022/01/06 03:20:03;;;;;;;4.73;1.33;;;3.60;99.90;;;;;;5036794;28;20506;-48
2022/01/06 03:22:30;;;;;;;0.87;0.60;;;3.40;99.90;;;;;;5036448;28;20452;-48
2022/01/06 03:24:57;;;;;;;2.13;0.93;;;3.40;99.90;;;;;;5036350;28;20483;-49
2022/01/06 03:27:23;;;;;;;4.17;1.00;;;3.30;99.90;;;;;;5036365;28;20541;-57
2022/01/06 03:29:51;;;;;;;2.93;0.80;;;3.40;99.90;;;;;;5036142;28;20479;-54
2022/01/06 03:32:19;;;;;;;1.43;0.80;;;3.40;99.90;;;;;;5035907;28;20449;-52
2022/01/06 03:34:46;;;;;;;0.87;0.60;;;3.30;99.90;;;;;;5035755;28;20940;-49
2022/01/06 03:37:14;;;;;;;1.10;0.70;;;3.30;99.90;;;;;;5036257;28;20449;-49
2022/01/06 03:39:42;;;;;;;2.40;0.80;;;3.30;99.90;;;;;;5035984;28;20449;-49
2022/01/06 03:42:12;;;;;;;0.80;0.60;;;3.30;99.90;;;;;;5035833;28;20932;-52
2022/01/06 03:44:39;;;;;;;1.33;1.23;;;3.20;99.90;;;;;;5036121;28;20437;-46
2022/01/06 03:47:08;;;;;;;1.73;0.73;;;3.10;99.90;;;;;;5035589;28;20492;-51
2022/01/06 03:49:35;;;;;;;1.60;1.03;;;3.00;99.90;;;;;;5036123;28;20436;-53
2022/01/06 03:52:02;;;;;;;1.63;0.80;;;3.00;99.90;;;;;;5035972;28;20754;-50
2022/01/06 03:54:28;;;;;;;1.43;0.70;;;2.90;99.90;;;;;;5035672;28;20448;-50
2022/01/06 03:56:56;;;;;;;1.20;0.93;;;2.90;99.90;;;;;;5035830;28;20467;-53
2022/01/06 03:59:23;;;;;;;6.60;2.90;;;2.90;99.90;;;;;;5035528;28;20515;-48
2022/01/06 04:01:49;;;;;;;4.40;0.87;;;2.80;99.90;;;;;;5036041;28;20471;-50
2022/01/06 04:04:17;;;;;;;1.50;0.93;;;2.70;99.90;;;;;;5035583;28;20522;-52
2022/01/06 04:06:44;;;;;;;0.80;0.57;;;2.70;99.90;;;;;;5035494;28;20480;-48
2022/01/06 04:09:11;;;;;;;1.17;0.80;;;2.60;99.90;;;;;;5035779;28;20465;-53
2022/01/06 04:11:40;;;;;;;2.03;0.83;;;2.60;99.90;;;;;;5034989;28;20473;-50
2022/01/06 04:14:07;;;;;;;2.30;1.27;;;2.70;99.90;;;;;;5035725;28;20457;-51
2022/01/06 04:16:36;;;;;;;1.10;0.80;;;2.70;99.90;;;;;;5035932;28;20445;-53
2022/01/06 04:19:03;;;;;;;0.90;0.70;;;2.60;99.90;;;;;;5035056;28;20748;-54
2022/01/06 04:21:32;;;;;;;7.07;0.80;;;2.50;99.90;;;;;;5035250;28;20448;-50
2022/01/06 04:23:59;;;;;;;0.80;0.50;;;2.40;99.90;;;;;;5035085;28;20468;-46
2022/01/06 04:26:25;;;;;;;1.33;0.83;;;2.50;99.90;;;;;;5034887;28;20472;-51
2022/01/06 04:28:52;;;;;;;2.50;0.83;;;2.40;99.90;;;;;;5034740;28;20449;-49
2022/01/06 04:31:19;;;;;;;0.80;0.50;;;2.30;99.90;;;;;;5035069;28;20448;-52
2022/01/06 04:33:46;;;;;;;0.80;0.50;;;2.30;99.90;;;;;;5035079;28;20445;-46
2022/01/06 04:36:15;;;;;;;1.00;0.60;;;2.20;99.90;;;;;;5034939;28;20476;-49
2022/01/06 04:38:43;;;;;;;0.90;0.67;;;2.20;99.90;;;;;;5035060;28;20475;-51
2022/01/06 04:41:10;;;;;;;1.43;0.60;;;2.20;99.90;;;;;;5035319;28;20459;-53
2022/01/06 04:43:38;;;;;;;1.87;0.70;;;2.20;99.90;;;;;;5035133;28;20445;-49
2022/01/06 04:46:05;;;;;;;3.53;0.60;;;2.10;99.90;;;;;;5034633;28;20494;-48
2022/01/06 04:48:32;;;;;;;1.73;1.07;;;2.10;99.90;;;;;;5034785;28;20771;-54
2022/01/06 04:50:59;;;;;;;0.80;0.60;;;2.10;99.90;;;;;;5034619;28;20544;-50
2022/01/06 04:53:26;;;;;;;1.30;0.60;;;2.10;99.90;;;;;;5034670;28;20509;-50
2022/01/06 04:55:56;;;;;;;0.90;0.50;;;2.10;99.90;;;;;;5034425;28;20460;-51
2022/01/06 04:58:22;;;;;;;3.87;0.73;;;2.10;99.90;;;;;;5034270;28;20456;-51
2022/01/06 05:00:49;;;;;;;1.13;0.80;;;2.00;99.90;;;;;;5034562;28;20464;-50
2022/01/06 05:03:17;;;;;;;0.80;0.50;;;2.00;99.90;;;;;;5034594;28;20467;-45
2022/01/06 05:05:44;;;;;;;0.80;0.50;;;2.00;99.90;;;;;;5034120;28;20452;-51
2022/01/06 05:08:10;;;;;;;1.67;0.80;;;2.00;99.90;;;;;;5034866;28;20435;-50
2022/01/06 05:10:37;;;;;;;1.30;0.80;;;2.00;99.90;;;;;;5034560;28;20444;-51
2022/01/06 05:13:05;;;;;;;1.07;0.73;;;2.00;99.90;;;;;;5034194;28;20530;-53
2022/01/06 05:15:31;;;;;;;1.00;0.50;;;2.00;99.90;;;;;;5034176;28;20514;-51
2022/01/06 05:17:58;;;;;;;0.93;0.60;;;2.00;99.90;;;;;;5034497;28;20849;-57
2022/01/06 05:20:26;;;;;;;0.80;0.60;;;2.00;99.90;;;;;;5034832;28;20503;-49
2022/01/06 05:22:56;;;;;;;0.90;0.60;;;2.00;99.90;;;;;;5034834;28;20445;-50
2022/01/06 05:25:26;;;;;;;0.90;0.50;;;2.00;99.90;;;;;;5034414;28;20464;-53
2022/01/06 05:27:53;;;;;;;1.10;0.77;;;2.10;99.90;;;;;;5035955;28;20487;-48
2022/01/06 05:30:22;;;;;;;0.90;0.60;;;2.10;99.90;;;;;;5038188;28;20526;-50
2022/01/06 05:32:49;;;;;;;8.43;1.03;;;2.10;99.90;;;;;;5038491;28;20563;-50
2022/01/06 05:35:16;;;;;;;0.80;0.60;;;2.10;99.90;;;;;;5038211;28;20495;-50
2022/01/06 05:37:43;;;;;;;1.23;0.60;;;2.10;99.90;;;;;;5037975;28;20465;-49
2022/01/06 05:40:11;;;;;;;1.33;0.80;;;2.10;99.90;;;;;;5038246;28;20490;-55
2022/01/06 05:42:38;;;;;;;2.30;0.83;;;2.10;99.90;;;;;;5038328;28;20468;-49
2022/01/06 05:45:06;;;;;;;1.00;0.70;;;2.10;99.90;;;;;;5037899;28;20921;-49
2022/01/06 05:47:34;;;;;;;0.80;0.50;;;2.00;99.90;;;;;;5038315;28;20460;-48
2022/01/06 05:50:01;;;;;;;1.23;0.60;;;2.00;99.90;;;;;;5038118;28;20451;-54
2022/01/06 05:52:28;;;;;;;1.33;1.03;;;1.90;99.90;;;;;;5038231;28;20464;-54
2022/01/06 05:54:55;;;;;;;1.10;0.60;;;1.90;99.90;;;;;;5037986;28;20475;-50
2022/01/06 05:57:22;;;;;;;2.83;0.80;;;1.90;99.90;;;;;;5037802;28;21028;-52
2022/01/06 05:59:48;;;;;;;1.50;0.67;;;1.90;99.90;;;;;;5037582;28;20476;-45
2022/01/06 06:02:15;;;;;;;8.90;2.07;;;1.80;99.90;;;;;;5038194;28;20487;-51
2022/01/06 06:04:43;;;;;;;1.20;0.87;;;1.80;99.90;;;;;;5037870;28;20484;-51
2022/01/06 06:07:10;;;;;;;1.80;0.80;;;1.80;99.90;;;;;;5037943;28;20495;-47
2022/01/06 06:09:36;;;;;;;6.50;0.87;;;1.70;99.90;;;;;;5037759;28;20483;-52
2022/01/06 06:12:06;;;;;;;6.93;1.20;;;1.70;99.90;;;;;;5037435;28;20531;-49
2022/01/06 06:14:32;;;;;;;1.00;0.60;;;1.80;99.90;;;;;;5037782;28;20452;-50
2022/01/06 06:16:59;;;;;;;1.07;0.60;;;1.80;99.90;;;;;;5037706;28;20460;-50
2022/01/06 06:19:26;;;;;;;0.90;0.70;;;1.80;99.90;;;;;;5037628;28;20474;-54
2022/01/06 06:21:54;;;;;;;1.00;0.70;;;1.70;99.90;;;;;;5037315;28;21156;-51
2022/01/06 06:24:23;;;;;;;17.23;2.00;;;1.70;99.90;;;;;;5037436;28;20476;-52
2022/01/06 06:26:50;;;;;;;1.63;0.90;;;1.60;99.90;;;;;;5037122;28;20490;-52
2022/01/06 06:29:17;;;;;;;0.80;0.60;;;1.60;99.90;;;;;;5037100;28;20460;-54
2022/01/06 06:31:43;;;;;;;1.30;1.13;;;1.60;99.90;;;;;;5037478;28;20522;-60
2022/01/06 06:34:11;;;;;;;0.80;0.50;;;1.60;99.90;;;;;;5037145;28;20459;-50
2022/01/06 06:36:38;;;;;;;1.63;0.87;;;1.60;99.90;;;;;;5037616;28;20498;-47
2022/01/06 06:39:06;;;;;;;3.40;1.07;;;1.50;99.90;;;;;;5037063;28;20452;-56
2022/01/06 06:41:32;;;;;;;2.40;0.70;;;1.50;99.90;;;;;;5037294;28;20468;-50
2022/01/06 06:43:59;;;;;;;0.90;0.60;;;1.40;99.90;;;;;;5037013;28;20894;-50
2022/01/06 06:46:26;;;;;;;1.23;0.60;;;1.40;99.90;;;;;;5036982;28;20460;-49
2022/01/06 06:48:53;;;;;;;3.30;1.67;;;1.40;99.90;;;;;;5037036;28;20514;-50
2022/01/06 06:51:20;;;;;;;1.10;0.70;;;1.40;99.90;;;;;;5037263;28;20471;-53
2022/01/06 06:53:46;;;;;;;2.13;0.80;;;1.40;99.90;;;;;;5049555;28;20477;-48
2022/01/06 06:56:14;;;;;;;2.87;1.00;;;1.40;99.90;;;;;;5028461;28;20452;-52
2022/01/06 06:58:41;;;;;;;4.63;0.97;;;1.50;99.90;;;;;;5020462;28;20446;-55
2022/01/06 07:01:08;;;;;;;11.20;1.33;;;1.40;99.90;;;;;;5020430;28;20448;-49
2022/01/06 07:03:34;;;;;;;2.50;1.13;;;1.40;99.90;;;;;;5021250;28;20469;-53
2022/01/06 07:06:01;;;;;;;0.90;0.70;;;1.50;99.90;;;;;;5021001;28;20491;-53
2022/01/06 07:08:28;;;;;;;1.07;0.70;;;1.50;99.90;;;;;;5020773;28;20493;-48
2022/01/06 07:10:54;;;;;;;1.10;0.70;;;1.50;99.90;;;;;;5020867;28;20507;-50
2022/01/06 07:13:22;;;;;;;1.10;0.80;;;1.50;99.90;;;;;;5020438;28;20472;-49
2022/01/06 07:15:49;;;;;;;3.77;0.60;;;1.40;99.90;;;;;;5020929;28;20441;-51
2022/01/06 07:18:16;;;;;;;1.10;0.60;;;1.50;99.90;;;;;;5020550;28;20775;-52
2022/01/06 07:20:43;;;;;;;1.20;1.10;;;1.40;99.90;;;;;;5020795;28;20456;-50
2022/01/06 07:23:09;;;;;;;1.30;0.60;;;1.40;99.90;;;;;;5021275;28;20464;-50
2022/01/06 07:25:36;;;;;;;1.83;1.00;;;1.40;99.90;;;;;;5020571;28;20477;-53
2022/01/06 07:28:04;;;;;;;1.00;0.80;;;1.50;99.90;;;;;;5020487;28;20547;-46
2022/01/06 07:30:33;;;;;;;0.90;0.70;;;1.40;99.90;;;;;;5020334;28;20485;-50
2022/01/06 07:33:01;;;;;;;0.80;0.53;;;1.40;99.90;;;;;;5042057;28;20449;-48
2022/01/06 07:35:28;;;;;;;2.30;0.60;;;1.40;99.90;;;;;;5026847;28;20449;-48
2022/01/06 07:37:55;;;;;;;2.47;1.70;;;1.40;99.90;;;;;;5026761;28;20441;-48
2022/01/06 07:40:22;;;;;;;1.47;0.80;;;1.40;99.90;;;;;;5025331;28;20466;-52
2022/01/06 07:42:50;;;;;;;11.73;0.80;;;1.40;99.90;;;;;;5026384;28;20476;-46
2022/01/06 07:45:17;;;;;;;1.10;0.70;;;1.30;99.90;;;;;;5035551;28;20460;-53
2022/01/06 07:47:56;;;;;;;1.50;0.90;;;1.30;99.90;;;;;;5036333;28;20835;-50
2022/01/06 07:50:24;;;;;;;3.17;1.27;;;1.30;99.90;;;;;;5035447;28;20456;-52
2022/01/06 07:52:51;;;;;;;1.40;0.90;;;1.40;99.90;;;;;;5034808;28;20448;-49
2022/01/06 07:55:20;;;;;;;0.90;0.60;;;1.40;99.90;;;;;;5035390;28;20774;-45
2022/01/06 07:57:47;;;;;;;0.90;0.60;;;1.30;99.90;;;;;;5026378;28;20483;-49
2022/01/06 08:00:15;;;;;;;1.10;0.87;;;1.30;99.90;;;;;;5026634;28;20473;-51
2022/01/06 08:02:42;;;;;;;0.93;0.60;;;1.30;99.90;;;;;;5028091;28;20483;-50
2022/01/06 08:05:12;;;;;;;0.93;0.60;;;1.20;99.90;;;;;;5027977;28;20527;-49
2022/01/06 08:07:39;;;;;;;1.30;0.70;;;1.20;99.90;;;;;;5026358;28;20588;-50
2022/01/06 08:10:07;;;;;;;2.10;1.17;;;1.20;99.90;;;;;;5025684;28;20456;-50
2022/01/06 08:12:34;;;;;;;1.50;0.80;;;1.20;99.90;;;;;;5025970;28;20475;-51
2022/01/06 08:15:01;;;;;;;2.40;0.87;;;1.20;99.90;;;;;;5029881;28;20441;-52
2022/01/06 08:17:36;;;;;;;4.30;1.13;;;1.20;99.90;;;;;;5036871;28;20487;-52
2022/01/06 08:20:05;;;;;;;1.20;0.97;;;1.20;99.90;;;;;;5036273;28;20433;-47
2022/01/06 08:22:33;;;;;;;4.40;0.97;;;1.30;99.90;;;;;;5036126;28;20499;-53
2022/01/06 08:25:00;;;;;;;1.10;0.83;;;1.30;99.90;;;;;;5036653;28;20426;-57
2022/01/06 08:27:28;;;;;;;0.80;0.50;;;1.30;99.90;;;;;;5036101;28;20480;-50
2022/01/06 08:29:56;;;;;;;0.80;0.60;;;1.30;99.90;;;;;;5035831;28;20493;-51
2022/01/06 08:32:23;;;;;;;1.30;0.70;;;1.30;99.90;;;;;;5036002;28;20476;-53
2022/01/06 08:34:51;;;;;;;4.53;1.07;;;1.40;99.90;;;;;;5036169;28;20463;-52
2022/01/06 08:37:18;;;;;;;1.67;0.70;;;1.40;99.90;;;;;;5036285;28;20461;-50
2022/01/06 08:39:46;;;;;;;1.27;0.80;;;1.40;99.90;;;;;;5036038;28;20465;-51
2022/01/06 08:42:15;;;;;;;1.83;0.93;;;1.50;99.90;;;;;;5036219;28;20540;-53
2022/01/06 08:44:42;;;;;;;9.73;1.10;;;1.50;99.90;;;;;;5036547;28;20472;-52
2022/01/06 08:47:10;;;;;;;2.80;1.17;;;1.60;99.90;;;;;;5036378;28;20515;-52
2022/01/06 08:49:40;;;;;;;5.50;1.37;;;1.60;99.90;;;;;;5023896;28;20496;-53
2022/01/06 08:52:08;;;;;;;0.83;0.60;;;1.60;99.90;;;;;;5015349;28;20450;-48
2022/01/06 08:54:41;;;;;;;2.37;2.17;;;1.70;99.90;;;;;;5035193;28;20485;-52
2022/01/06 08:57:09;;;;;;;3.73;0.90;;;1.70;99.90;;;;;;5036002;28;20464;-49
2022/01/06 08:59:37;;;;;;;1.00;0.90;;;1.80;99.90;;;;;;5036132;28;20479;-51
2022/01/06 09:02:04;;;;;;;0.80;0.53;;;1.80;99.90;;;;;;5034522;28;20488;-54
2022/01/06 09:04:31;;;;;;;1.20;0.80;;;1.90;99.90;;;;;;5035716;28;20434;-53
2022/01/06 09:06:58;;;;;;;2.67;1.30;;;1.80;99.90;;;;;;5034946;28;20459;-49
2022/01/06 09:09:25;;;;;;;2.27;0.80;;;1.90;99.90;;;;;;5035502;28;20448;-53
2022/01/06 09:11:52;;;;;;;1.73;1.20;;;2.00;99.90;;;;;;5035578;28;20453;-49
2022/01/06 09:14:20;;;;;;;1.87;0.90;;;2.00;99.90;;;;;;5035466;28;20465;-53
2022/01/06 09:16:47;;;;;;;2.00;0.90;;;2.10;99.90;;;;;;5035240;28;20480;-49
2022/01/06 09:19:14;;;;;;;1.10;0.80;;;2.10;99.90;;;;;;5035286;28;20499;-53
2022/01/06 09:21:40;;;;;;;1.73;1.30;;;2.10;99.90;;;;;;5035083;28;20517;-46
2022/01/06 09:24:07;;;;;;;0.90;0.70;;;2.20;99.90;;;;;;5035359;28;20504;-50
2022/01/06 09:26:35;;;;;;;1.50;1.00;;;2.20;99.90;;;;;;5035838;28;20426;-50
2022/01/06 09:29:03;;;;;;;1.40;0.97;;;2.20;99.90;;;;;;5035107;28;20492;-48
2022/01/06 09:31:36;;;;;;;3.63;1.83;;;2.30;99.90;;;;;;5035861;28;20445;-50
2022/01/06 09:34:03;;;;;;;2.30;0.70;;;2.30;99.90;;;;;;5035284;28;20444;-50
2022/01/06 09:36:32;;;;;;;1.63;0.80;;;2.30;99.90;;;;;;5035072;28;20469;-53
2022/01/06 09:39:00;;;;;;;10.13;1.33;;;2.30;99.90;;;;;;5035210;28;20480;-47
2022/01/06 09:41:27;;;;;;;4.13;1.30;;;2.40;99.90;;;;;;5035274;28;20465;-55
2022/01/06 09:43:55;;;;;;;16.73;0.97;;;2.40;99.90;;;;;;5035904;28;20883;-50
2022/01/06 09:46:22;;;;;;;10.53;1.10;;;2.50;99.90;;;;;;5034832;28;20480;-47
2022/01/06 09:48:50;;;;;;;1.30;0.93;;;2.70;99.90;;;;;;5035285;28;20481;-52
2022/01/06 09:51:18;;;;;;;9.77;1.00;;;3.00;99.90;;;;;;5035148;28;20446;-49
2022/01/06 09:53:45;;;;;;;2.97;1.10;;;3.20;99.90;;;;;;5035742;28;20466;-53
2022/01/06 09:56:12;;;;;;;1.00;0.67;;;3.30;99.90;;;;;;5035490;28;20453;-49
2022/01/06 09:58:39;;;;;;;1.00;0.70;;;3.50;99.90;;;;;;5035562;28;20528;-51
2022/01/06 10:01:06;;;;;;;2.60;1.07;;;4.10;99.90;;;;;;5035438;28;20442;-50
2022/01/06 10:03:35;;;;;;;6.40;1.27;;;4.30;99.90;;;;;;5035064;28;20464;-47
2022/01/06 10:06:16;;;;;;;3.00;1.03;;;4.50;99.90;;;;;;5034940;28;20434;-51
2022/01/06 10:08:50;;;;;;;3.00;1.50;;;4.70;99.90;;;;;;5034813;28;20488;-53
2022/01/06 10:11:19;;;;;;;6.50;1.10;;;4.80;99.90;;;;;;5035335;28;20429;-52
2022/01/06 10:13:54;;;;;;;1.90;0.80;;;5.00;99.90;;;;;;5036213;28;20492;-51
2022/01/06 10:16:23;;;;;;;1.33;1.23;;;5.20;99.90;;;;;;5038870;28;20455;-47
2022/01/06 10:18:58;;;;;;;3.47;1.53;;;5.70;99.90;;;;;;5038097;28;20469;-50
2022/01/06 10:21:29;;;;;;;2.93;1.10;;;6.10;99.90;;;;;;5037104;28;20475;-54
2022/01/06 10:24:01;;;;;;;5.23;1.13;;;6.90;99.90;;;;;;5037761;28;20429;-50
2022/01/06 10:26:28;;;;;;;1.47;0.83;;;7.70;99.90;;;;;;5037381;28;20476;-48
2022/01/06 10:28:55;;;;;;;1.67;0.97;;;8.50;99.90;;;;;;5037415;28;20487;-49
2022/01/06 10:31:29;;;;;;;1.17;1.07;;;9.30;99.90;;;;;;5037981;28;20448;-52
2022/01/06 10:33:57;;;;;;;2.97;1.50;;;9.80;99.90;;;;;;5037682;28;20416;-54
2022/01/06 10:36:30;;;;;;;1.50;1.10;;;9.60;99.90;;;;;;5037477;28;20430;-53
2022/01/06 10:39:00;;;;;;;1.40;0.80;;;9.00;99.90;;;;;;5038350;28;20436;-50
2022/01/06 10:41:28;;;;;;;3.20;1.00;;;8.40;99.90;;;;;;5038433;28;20485;-51
2022/01/06 10:44:03;;;;;;;1.20;0.90;;;7.60;99.90;;;;;;5038231;28;20480;-52
2022/01/06 10:46:35;;;;;;;13.23;6.13;;;7.00;99.90;;;;;;5037998;28;20446;-52
2022/01/06 10:49:05;;;;;;;1.87;1.67;;;6.40;99.90;;;;;;5037756;28;20502;-53
2022/01/06 10:51:35;;;;;;;0.90;0.70;;;5.90;99.90;;;;;;5037784;28;20437;-51
2022/01/06 10:54:02;;;;;;;0.90;0.60;;;5.60;99.90;;;;;;5037479;28;20480;-48
2022/01/06 10:56:29;;;;;;;1.30;1.03;;;5.30;99.90;;;;;;5037406;28;20433;-47
2022/01/06 10:58:59;;;;;;;1.20;0.77;;;5.00;99.90;;;;;;5036893;28;20524;-52
2022/01/06 11:01:32;;;;;;;6.73;1.07;;;4.70;99.90;;;;;;5037779;28;20429;-52
2022/01/06 11:03:58;;;;;;;3.00;1.23;;;4.60;99.90;;;;;;5037046;28;20449;-45
2022/01/06 11:06:25;;;;;;;3.40;1.17;;;4.60;99.90;;;;;;5037072;28;20484;-50
2022/01/06 11:08:54;;;;;;;1.30;1.20;;;4.40;99.90;;;;;;5037527;28;20476;-48
2022/01/06 11:11:45;;;;;;;1.47;0.70;;;4.20;99.90;;;;;;5037262;28;20549;-46
2022/01/06 11:14:17;;;;;;;2.47;1.30;;;4.10;99.90;;;;;;5038152;28;20440;-44
2022/01/06 11:16:47;;;;;;;2.83;0.97;;;4.10;99.90;;;;;;5037206;28;20468;-51
2022/01/06 11:19:14;;;;;;;3.07;0.80;;;4.10;99.90;;;;;;5037486;28;20425;-45
2022/01/06 11:21:43;;;;;;;2.17;1.00;;;4.10;99.90;;;;;;5037218;28;20445;-48
2022/01/06 11:24:14;;;;;;;3.30;1.03;;;4.10;99.90;;;;;;5037165;28;20492;-48
2022/01/06 11:26:41;;;;;;;1.43;1.00;;;4.10;99.90;;;;;;5036583;28;20432;-43
2022/01/06 11:29:13;;;;;;;5.27;1.00;;;4.10;99.90;;;;;;5037009;28;20493;-52
2022/01/06 11:31:41;;;;;;;0.80;0.50;;;4.20;99.90;;;;;;5037053;28;20453;-45
2022/01/06 11:34:14;;;;;;;2.20;0.93;;;4.20;99.90;;;;;;5036710;28;20473;-55
2022/01/06 11:36:41;;;;;;;0.90;0.60;;;4.30;99.90;;;;;;5037442;28;20470;-50
2022/01/06 11:39:09;;;;;;;0.90;0.70;;;4.20;99.90;;;;;;5036687;28;20537;-47
2022/01/06 11:41:39;;;;;;;1.97;1.20;;;4.20;99.90;;;;;;5037365;28;20492;-49
2022/01/06 11:44:16;;;;;;;0.90;0.60;;;4.30;99.90;;;;;;5037150;28;20469;-54
2022/01/06 11:46:44;;;;;;;1.20;0.80;;;4.40;99.90;;;;;;5036654;28;20894;-41
2022/01/06 11:49:11;;;;;;;2.20;0.80;;;4.50;99.90;;;;;;5037133;28;20477;-46
2022/01/06 11:51:38;;;;;;;1.63;0.83;;;4.50;99.90;;;;;;5037148;28;20461;-50
2022/01/06 11:54:15;;;;;;;3.53;1.13;;;4.50;99.90;;;;;;5036535;28;20488;-47
2022/01/06 11:56:47;;;;;;;1.93;1.10;;;4.50;99.90;;;;;;5037437;28;20461;-56
2022/01/06 11:59:15;;;;;;;4.30;1.53;;;4.50;99.90;;;;;;5037080;28;20495;-50
2022/01/06 12:01:49;;;;;;;1.10;0.67;;;4.60;99.90;;;;;;5036698;28;20453;-50
2022/01/06 12:04:18;;;;;;;0.80;0.50;;;4.60;99.90;;;;;;5037023;28;20409;-53
2022/01/06 12:06:45;;;;;;;1.00;0.60;;;4.60;99.90;;;;;;5037188;28;20433;-49
2022/01/06 12:09:16;;;;;;;1.77;0.97;;;4.50;99.90;;;;;;5036607;28;20461;-58
2022/01/06 12:11:43;;;;;;;4.50;1.37;;;4.50;99.90;;;;;;5035761;28;20434;-53
2022/01/06 12:14:23;;;;;;;0.87;0.57;;;4.50;99.90;;;;;;5036618;28;20470;-46
2022/01/06 12:16:50;;;;;;;1.10;0.70;;;4.50;99.90;;;;;;5036860;28;20457;-48
2022/01/06 12:19:24;;;;;;;1.10;0.70;;;4.50;99.90;;;;;;5036640;28;20492;-52
2022/01/06 12:21:51;;;;;;;7.03;0.83;;;4.40;99.90;;;;;;5036356;28;20461;-50
2022/01/06 12:24:18;;;;;;;1.10;0.83;;;4.40;99.90;;;;;;5037128;28;20469;-52
2022/01/06 12:26:46;;;;;;;1.00;0.80;;;4.70;99.90;;;;;;5036585;28;20449;-48
2022/01/06 12:29:18;;;;;;;4.97;1.23;;;4.70;99.90;;;;;;5036508;28;20481;-50
2022/01/06 12:31:44;;;;;;;2.03;1.00;;;4.70;99.90;;;;;;5036442;28;20503;-50
2022/01/06 12:34:12;;;;;;;1.43;0.70;;;4.60;99.90;;;;;;5036104;28;20453;-45
2022/01/06 12:36:49;;;;;;;4.97;0.97;;;4.70;99.90;;;;;;5036638;28;20501;-48
2022/01/06 12:39:20;;;;;;;13.00;0.90;;;4.70;99.90;;;;;;5036305;28;20453;-52
2022/01/06 12:41:49;;;;;;;3.23;1.17;;;4.70;99.90;;;;;;5036083;28;20492;-52
2022/01/06 12:44:22;;;;;;;1.20;0.90;;;4.70;99.90;;;;;;5035805;28;20442;-47
2022/01/06 12:46:49;;;;;;;1.37;0.80;;;4.70;98.30;;;;;;5036174;28;20488;-47
2022/01/06 12:49:20;;;;;;;1.47;0.97;;;4.70;97.90;;;;;;5035773;28;20458;-51
2022/01/06 12:51:51;;;;;;;1.30;0.80;;;4.70;96.90;;;;;;5035713;28;20481;-46
2022/01/06 12:54:22;;;;;;;1.97;1.27;;;4.70;96.50;;;;;;5035394;28;20469;-50
2022/01/06 12:56:53;;;;;;;1.80;0.67;;;4.60;93.60;;;;;;5035597;28;20430;-54
2022/01/06 12:59:29;;;;;;;2.43;0.70;;;4.60;92.80;;;;;;5035505;28;20465;-52
2022/01/06 13:01:57;;;;;;;2.33;1.07;;;4.60;92.40;;;;;;5035324;28;20456;-51
2022/01/06 13:04:26;;;;;;;2.77;0.73;;;4.60;93.00;;;;;;5035508;28;20438;-52
2022/01/06 13:06:55;;;;;;;1.20;0.90;;;4.70;92.40;;;;;;5035181;28;20505;-52
2022/01/06 13:09:24;;;;;;;0.80;0.60;;;4.60;91.30;;;;;;5034905;28;20496;-51